createdAt,value
2023-04-02T09:40:33.609Z,3.20
2023-04-02T09:43:12.212Z,2.83
2023-04-02T09:45:55.105Z,1.38
2023-04-02T09:48:33.424Z,2.67
2023-04-02T09:51:18.167Z,2.22
2023-04-02T09:54:15.365Z,2.90
2023-04-02T09:57:06.927Z,2.00
2023-04-02T09:59:41.865Z,2.53
2023-04-02T10:02:33.582Z,2.03
2023-04-02T10:05:40.649Z,1.63
2023-04-02T10:08:31.988Z,1.70
2023-04-02T10:11:06.607Z,1.30
2023-04-02T10:13:44.572Z,2.30
2023-04-02T10:16:39.017Z,2.40
2023-04-02T10:19:31.691Z,1.70
2023-04-02T10:22:09.380Z,2.15
2023-04-02T10:24:40.065Z,1.33
2023-04-02T10:27:34.493Z,10.02
2023-04-02T10:30:15.974Z,17.48
2023-04-02T10:32:57.937Z,18.20
2023-04-02T10:36:09.822Z,9.27
2023-04-02T10:38:53.062Z,10.85
2023-04-02T10:41:43.938Z,5.47
2023-04-02T10:44:25.071Z,2.97
2023-04-02T10:47:03.636Z,5.35
2023-04-02T10:49:56.822Z,9.38
2023-04-02T10:52:36.640Z,4.65
2023-04-02T10:55:23.463Z,5.88
2023-04-02T10:57:58.494Z,9.50
2023-04-02T11:00:34.164Z,21.88
2023-04-02T11:03:19.339Z,6.15
2023-04-02T11:05:54.121Z,4.13
2023-04-02T11:08:48.695Z,10.63
2023-04-02T11:11:32.590Z,8.88
2023-04-02T11:14:11.132Z,15.82
2023-04-02T11:16:44.648Z,13.00
2023-04-02T11:19:15.666Z,5.80
2023-04-02T11:21:59.954Z,7.50
2023-04-02T11:24:34.366Z,4.17
2023-04-02T11:27:12.877Z,8.50
2023-04-02T11:30:05.020Z,2.60
2023-04-02T11:32:37.603Z,3.92
2023-04-02T11:35:32.528Z,5.93
2023-04-02T11:38:11.699Z,3.05
2023-04-02T11:40:45.215Z,2.50
2023-04-02T11:43:33.434Z,2.22
2023-04-02T11:48:50.913Z,3.33
2023-04-02T11:51:21.453Z,1.40
2023-04-02T11:53:58.608Z,1.60
2023-04-02T11:56:43.889Z,1.73
2023-04-02T11:59:32.620Z,2.42
2023-04-02T12:02:14.681Z,1.92
2023-04-02T12:05:27.251Z,0.85
2023-04-02T12:08:23.566Z,1.02
2023-04-02T12:13:40.211Z,1.00
2023-04-02T12:16:14.624Z,1.60
2023-04-02T12:18:53.985Z,1.20
2023-04-02T12:21:27.794Z,1.27
2023-04-02T12:23:59.664Z,2.08
2023-04-02T12:26:32.326Z,1.10
2023-04-02T12:29:36.430Z,0.98
2023-04-02T12:32:20.507Z,0.73
2023-04-02T12:34:52.588Z,1.67
2023-04-02T12:37:26.514Z,1.08
2023-04-02T12:40:07.685Z,0.80
2023-04-02T12:42:38.529Z,0.98
2023-04-02T12:45:30.766Z,0.60
2023-04-02T12:48:05.537Z,1.67
2023-04-02T12:50:36.511Z,2.00
2023-04-02T12:53:21.258Z,1.45
2023-04-02T12:55:52.989Z,1.90
2023-04-02T12:58:30.874Z,1.90
2023-04-02T13:01:21.141Z,1.70
2023-04-02T13:04:06.722Z,1.30
2023-04-02T13:06:37.396Z,1.10
2023-04-02T13:09:30.262Z,1.20
2023-04-02T13:12:01.427Z,1.63
2023-04-02T13:14:31.993Z,1.17
2023-04-02T13:17:02.277Z,1.00
2023-04-02T13:19:34.294Z,1.10
2023-04-02T13:22:24.404Z,1.17
2023-04-02T13:24:56.453Z,1.25
2023-04-02T13:27:26.719Z,1.75
2023-04-02T13:29:56.849Z,2.00
2023-04-02T13:32:28.626Z,2.17
2023-04-02T13:34:58.910Z,9.27
2023-04-02T13:37:29.236Z,3.28
2023-04-02T13:39:59.563Z,2.70
2023-04-02T13:42:29.885Z,2.80
2023-04-02T13:45:00.169Z,3.08
2023-04-02T13:47:30.451Z,3.95
2023-04-02T13:50:00.824Z,2.60
2023-04-02T13:52:31.105Z,2.00
2023-04-02T13:55:03.988Z,2.15
2023-04-02T13:57:34.768Z,1.15
2023-04-02T14:00:06.144Z,3.05
2023-04-02T14:02:43.889Z,2.88
2023-04-02T14:05:26.955Z,3.90
2023-04-02T14:08:32.621Z,1.92
2023-04-02T14:11:05.903Z,2.80
2023-04-02T14:13:51.584Z,3.30
2023-04-02T14:16:51.524Z,2.08
2023-04-02T14:19:33.891Z,1.90
2023-04-02T14:22:25.541Z,0.90
2023-04-02T14:25:23.424Z,1.70
2023-04-02T14:28:23.767Z,2.95
2023-04-02T14:31:32.798Z,1.60
2023-04-02T14:34:32.273Z,2.70
2023-04-02T14:37:13.802Z,2.00
2023-04-02T14:40:02.774Z,2.50
2023-04-02T14:43:22.800Z,1.52
2023-04-02T14:45:55.620Z,1.58
2023-04-02T14:48:47.977Z,1.20
2023-04-02T14:51:27.564Z,1.00
2023-04-02T14:54:13.064Z,2.60
2023-04-02T14:56:52.556Z,1.40
2023-04-02T14:59:28.330Z,1.77
2023-04-02T15:02:15.171Z,1.58
2023-04-02T15:05:02.383Z,1.92
2023-04-02T15:07:50.005Z,1.50
2023-04-02T15:10:26.378Z,1.35
2023-04-02T15:12:58.583Z,1.50
2023-04-02T15:15:40.286Z,2.00
2023-04-02T15:18:18.501Z,1.17
2023-04-02T15:21:29.520Z,0.98
2023-04-02T15:24:41.095Z,2.20
2023-04-02T15:27:38.888Z,2.22
2023-04-02T15:30:19.987Z,1.90
2023-04-02T15:32:52.673Z,2.90
2023-04-02T15:35:46.337Z,1.30
2023-04-02T15:38:26.288Z,1.65
2023-04-02T15:41:04.661Z,2.65
2023-04-02T15:43:53.462Z,1.42
2023-04-02T15:46:42.170Z,3.08
2023-04-02T15:49:27.525Z,1.83
2023-04-02T15:52:13.331Z,4.70
2023-04-02T15:54:53.783Z,2.63
2023-04-02T15:57:53.304Z,3.50
2023-04-02T16:00:30.721Z,2.45
2023-04-02T16:03:22.538Z,4.05
2023-04-02T16:06:25.618Z,2.58
2023-04-02T16:09:23.516Z,2.10
2023-04-02T16:12:02.716Z,2.67
2023-04-02T16:14:34.072Z,2.13
2023-04-02T16:17:23.846Z,1.77
2023-04-02T16:20:06.578Z,1.90
2023-04-02T16:22:44.446Z,1.92
2023-04-02T16:25:28.376Z,0.95
2023-04-02T16:28:45.953Z,1.40
2023-04-02T16:31:35.526Z,1.80
2023-04-02T16:34:05.637Z,2.83
2023-04-02T16:36:52.469Z,2.42
2023-04-02T16:39:22.586Z,1.45
2023-04-02T16:42:10.717Z,1.92
2023-04-02T16:45:03.338Z,1.23
2023-04-02T16:47:53.305Z,1.60
2023-04-02T16:50:58.524Z,1.15
2023-04-02T16:53:34.452Z,1.03
2023-04-02T16:56:17.068Z,0.68
2023-04-02T16:59:17.020Z,1.50
2023-04-02T17:02:04.046Z,1.15
2023-04-02T17:04:46.611Z,1.23
2023-04-02T17:07:31.562Z,1.20
2023-04-02T17:10:20.169Z,0.70
2023-04-02T17:13:19.709Z,1.20
2023-04-02T17:16:21.000Z,1.27
2023-04-02T17:18:57.918Z,1.08
2023-04-02T17:24:17.543Z,1.10
2023-04-02T17:27:04.421Z,1.83
2023-04-02T17:29:44.955Z,2.75
2023-04-02T17:32:22.913Z,1.77
2023-04-02T17:34:53.152Z,1.88
2023-04-02T17:37:40.233Z,1.17
2023-04-02T17:40:24.365Z,1.40
2023-04-02T17:43:05.584Z,2.17
2023-04-02T17:45:46.469Z,1.35
2023-04-02T17:48:37.700Z,1.40
2023-04-02T17:51:30.681Z,1.40
2023-04-02T17:54:20.841Z,1.63
2023-04-02T17:57:19.784Z,0.95
2023-04-02T17:59:55.818Z,1.42
2023-04-02T18:02:41.082Z,0.98
2023-04-02T18:05:41.140Z,1.20
2023-04-02T18:08:51.806Z,1.30
2023-04-02T18:11:43.589Z,1.40
2023-04-02T18:14:35.065Z,1.67
2023-04-02T18:17:11.173Z,1.20
2023-04-02T18:19:54.432Z,1.23
2023-04-02T18:22:42.268Z,1.30
2023-04-02T18:25:28.360Z,2.92
2023-04-02T18:28:01.448Z,10.68
2023-04-02T18:30:37.971Z,3.65
2023-04-02T18:33:19.193Z,5.75
2023-04-02T18:36:24.263Z,7.22
2023-04-02T18:39:08.503Z,11.20
2023-04-02T18:42:17.394Z,6.47
2023-04-02T18:45:04.489Z,4.28
2023-04-02T18:47:34.632Z,6.78
2023-04-02T18:50:23.086Z,3.53
2023-04-02T18:52:55.353Z,3.92
2023-04-02T18:55:29.904Z,2.58
2023-04-02T18:58:12.784Z,3.72
2023-04-02T19:00:45.555Z,2.90
2023-04-02T19:03:22.003Z,1.98
2023-04-02T19:06:01.409Z,1.77
2023-04-02T19:08:39.353Z,1.52
2023-04-02T19:11:31.664Z,1.10
2023-04-02T19:14:05.499Z,1.33
2023-04-02T19:17:02.573Z,1.70
2023-04-02T19:19:41.982Z,1.40
2023-04-02T19:22:42.519Z,4.63
2023-04-02T19:25:43.632Z,1.90
2023-04-02T19:28:19.814Z,1.02
2023-04-02T19:31:03.885Z,1.40
2023-04-02T19:33:52.398Z,1.23
2023-04-02T19:36:31.748Z,1.58
2023-04-02T19:39:06.037Z,4.97
2023-04-02T19:41:48.069Z,4.35
2023-04-02T19:44:18.983Z,3.83
2023-04-02T19:46:51.651Z,2.40
2023-04-02T19:49:33.904Z,3.10
2023-04-02T19:52:04.195Z,3.03
2023-04-02T19:54:35.331Z,4.20
2023-04-02T19:57:06.843Z,2.60
2023-04-02T19:59:37.101Z,2.25
2023-04-02T20:02:10.527Z,3.83
2023-04-02T20:04:41.025Z,21.25
2023-04-02T20:07:11.276Z,7.93
2023-04-02T20:09:41.495Z,6.45
2023-04-02T20:12:12.447Z,4.60
2023-04-02T20:14:44.723Z,8.82
2023-04-02T20:17:14.874Z,6.72
2023-04-02T20:19:45.062Z,4.20
2023-04-02T20:22:15.177Z,2.95
2023-04-02T20:24:45.288Z,2.25
2023-04-02T20:27:15.600Z,2.58
2023-04-02T20:29:46.344Z,1.80
2023-04-02T20:32:17.675Z,1.65
2023-04-02T20:34:48.368Z,2.25
2023-04-02T20:37:18.437Z,1.77
2023-04-02T20:39:48.800Z,1.92
2023-04-02T20:42:18.976Z,1.90
2023-04-02T20:44:49.178Z,1.23
2023-04-02T20:47:19.648Z,1.63
2023-04-02T20:49:50.607Z,1.48
2023-04-02T20:52:22.158Z,1.45
2023-04-02T20:54:52.332Z,1.70
2023-04-02T20:57:23.088Z,1.10
2023-04-02T20:59:54.736Z,0.80
2023-04-02T21:02:25.185Z,0.82
2023-04-02T21:04:56.548Z,0.90
2023-04-02T21:07:26.718Z,1.10
2023-04-02T21:09:56.985Z,0.93
2023-04-02T21:12:27.124Z,1.10
2023-04-02T21:15:01.100Z,1.05
2023-04-02T21:17:32.687Z,0.82
2023-04-02T21:20:03.659Z,1.00
2023-04-02T21:22:33.942Z,0.80
2023-04-02T21:25:04.184Z,0.60
2023-04-02T21:27:34.307Z,0.93
2023-04-02T21:30:05.143Z,1.75
2023-04-02T21:32:36.075Z,1.10
2023-04-02T21:35:08.889Z,1.00
2023-04-02T21:37:39.139Z,1.17
2023-04-02T21:40:09.608Z,0.85
2023-04-02T21:42:39.772Z,1.52
2023-04-02T21:45:10.411Z,0.95
2023-04-02T21:47:40.655Z,0.80
2023-04-02T21:50:11.105Z,1.30
2023-04-02T21:52:41.176Z,1.20
2023-04-02T21:55:11.299Z,1.77
2023-04-02T21:57:41.523Z,0.68
2023-04-02T22:00:13.849Z,0.90
2023-04-02T22:02:44.062Z,1.08
2023-04-02T22:05:14.346Z,0.85
2023-04-02T22:07:44.532Z,0.73
2023-04-02T22:10:14.664Z,0.88
2023-04-02T22:12:44.842Z,0.85
2023-04-02T22:15:15.152Z,0.93
2023-04-02T22:17:45.356Z,1.48
2023-04-02T22:20:15.771Z,0.98
2023-04-02T22:22:45.871Z,1.38
2023-04-02T22:25:16.000Z,1.63
2023-04-02T22:27:46.154Z,1.10
2023-04-02T22:30:16.293Z,1.33
2023-04-02T22:32:46.583Z,0.80
2023-04-02T22:35:17.388Z,0.63
2023-04-02T22:37:47.508Z,0.60
2023-04-02T22:40:18.002Z,0.60
2023-04-02T22:42:49.028Z,0.60
2023-04-02T22:45:21.394Z,0.82
2023-04-02T22:47:51.610Z,0.60
2023-04-02T22:50:22.193Z,0.70
2023-04-02T22:52:52.316Z,0.60
2023-04-02T22:55:22.666Z,0.70
2023-04-02T22:57:53.028Z,0.50
2023-04-02T23:00:23.492Z,0.80
2023-04-02T23:02:53.677Z,1.63
2023-04-02T23:05:23.848Z,0.73
2023-04-02T23:07:54.014Z,0.60
2023-04-02T23:10:24.173Z,0.45
2023-04-02T23:13:00.845Z,0.52
2023-04-02T23:15:31.230Z,0.68
2023-04-02T23:18:01.466Z,0.60
2023-04-02T23:20:31.532Z,0.70
2023-04-02T23:23:01.678Z,0.60
2023-04-02T23:25:31.799Z,1.05
2023-04-02T23:28:01.876Z,0.40
2023-04-02T23:30:32.222Z,0.47
2023-04-02T23:33:04.629Z,0.50
2023-04-02T23:35:35.414Z,0.90
2023-04-02T23:38:07.917Z,1.27
2023-04-02T23:40:38.263Z,0.90
2023-04-02T23:43:08.441Z,0.98
2023-04-02T23:45:38.607Z,1.30
2023-04-02T23:48:08.772Z,1.05
2023-04-02T23:50:39.079Z,1.27
2023-04-02T23:53:09.338Z,0.90
2023-04-02T23:55:40.122Z,0.93
2023-04-02T23:58:10.390Z,0.90
